Time;durP1;ratioP1;P1;durP2;ratioP2;P2;SDS_P1;SDS_P2;PMS_P1;PMS_P2;Temp;Humidity;BMP_temperature;BMP_pressure;BME280_temperature;BME280_humidity;BME280_pressure;Samples;Min_cycle;Max_cycle;Signal;HPM_P1;HPM_P2
2020/12/08 00:00:34;;;;;;;19.15;13.15;;;2.10;99.90;;;;;;5012882;28;20524;-73
2020/12/08 00:02:59;;;;;;;20.30;12.82;;;2.10;99.90;;;;;;5011875;28;20472;-73
2020/12/08 00:05:25;;;;;;;20.58;13.07;;;2.10;99.90;;;;;;5010914;28;20388;-72
2020/12/08 00:07:51;;;;;;;21.30;14.60;;;2.00;99.90;;;;;;5012695;28;20423;-71
2020/12/08 00:10:20;;;;;;;21.02;14.10;;;2.00;99.90;;;;;;5012777;28;20018;-72
2020/12/08 00:12:53;;;;;;;19.65;13.38;;;2.20;99.90;;;;;;5011650;28;20041;-72
2020/12/08 00:15:19;;;;;;;18.73;13.40;;;2.10;99.90;;;;;;5012108;28;20022;-73
2020/12/08 00:17:46;;;;;;;17.20;13.15;;;2.10;99.90;;;;;;5011739;28;20061;-71
2020/12/08 00:20:12;;;;;;;19.73;13.75;;;2.10;99.90;;;;;;5012677;28;20392;-70
2020/12/08 00:22:39;;;;;;;16.98;12.77;;;2.10;99.90;;;;;;5013146;28;20577;-71
2020/12/08 00:25:06;;;;;;;19.63;13.27;;;2.10;99.90;;;;;;5014152;28;20025;-71
2020/12/08 00:27:32;;;;;;;21.88;14.50;;;2.20;99.90;;;;;;5013755;28;20032;-71
2020/12/08 00:29:58;;;;;;;20.63;13.57;;;2.10;99.90;;;;;;5012356;28;20034;-71
2020/12/08 00:32:24;;;;;;;24.88;14.48;;;2.20;99.90;;;;;;5014000;28;20120;-72
2020/12/08 00:34:50;;;;;;;21.55;13.98;;;2.30;99.90;;;;;;5012483;28;20033;-72
2020/12/08 00:37:15;;;;;;;22.80;14.63;;;2.20;99.90;;;;;;5012295;28;20080;-71
2020/12/08 00:39:41;;;;;;;21.90;14.48;;;2.20;99.90;;;;;;5012202;28;20121;-70
2020/12/08 00:42:07;;;;;;;20.17;13.98;;;2.20;99.90;;;;;;5011746;28;20054;-70
2020/12/08 00:44:35;;;;;;;21.80;14.23;;;2.20;99.90;;;;;;5010911;28;20033;-73
2020/12/08 00:47:03;;;;;;;23.08;14.15;;;2.30;99.90;;;;;;5011859;28;20452;-71
2020/12/08 00:49:28;;;;;;;21.95;14.40;;;2.20;99.90;;;;;;5010583;28;20030;-73
2020/12/08 00:51:58;;;;;;;24.77;15.20;;;2.30;99.90;;;;;;5011807;28;20479;-73
2020/12/08 00:54:24;;;;;;;23.13;14.50;;;2.20;99.90;;;;;;5011308;28;20029;-71
2020/12/08 00:56:50;;;;;;;22.50;14.68;;;2.30;99.90;;;;;;5014237;28;20029;-72
2020/12/08 00:59:16;;;;;;;21.45;14.27;;;2.20;99.90;;;;;;5014107;28;20025;-73
2020/12/08 01:01:42;;;;;;;20.08;13.48;;;2.30;99.90;;;;;;5010183;28;20365;-71
2020/12/08 01:04:11;;;;;;;19.63;13.63;;;2.30;99.90;;;;;;5010579;28;20080;-73
2020/12/08 01:06:40;;;;;;;23.00;14.18;;;2.30;99.90;;;;;;5010582;28;20022;-74
2020/12/08 01:09:07;;;;;;;21.63;14.13;;;2.30;99.90;;;;;;5011130;28;20033;-71
2020/12/08 01:11:45;;;;;;;19.42;14.27;;;2.30;99.90;;;;;;5010924;28;20022;-72
2020/12/08 01:14:12;;;;;;;19.80;13.77;;;2.20;99.90;;;;;;5010313;28;20092;-73
2020/12/08 01:16:39;;;;;;;23.25;15.13;;;2.20;99.90;;;;;;5011120;28;20049;-73
2020/12/08 01:19:05;;;;;;;21.83;14.32;;;2.20;99.90;;;;;;5011179;28;20439;-73
2020/12/08 01:21:31;;;;;;;23.48;15.13;;;2.20;99.90;;;;;;5011042;28;20026;-74
2020/12/08 01:23:57;;;;;;;23.40;15.15;;;2.10;99.90;;;;;;5009011;28;20411;-71
2020/12/08 01:26:24;;;;;;;23.33;15.40;;;2.10;99.90;;;;;;5011045;28;20390;-72
2020/12/08 01:28:50;;;;;;;24.23;15.70;;;2.20;99.90;;;;;;5011044;28;20061;-70
2020/12/08 01:31:16;;;;;;;19.98;14.00;;;2.10;99.90;;;;;;5010815;28;20462;-71
2020/12/08 01:33:42;;;;;;;20.65;13.93;;;2.10;99.90;;;;;;5010438;28;20034;-72
2020/12/08 01:36:08;;;;;;;24.45;15.68;;;2.10;99.90;;;;;;5010699;28;20121;-71
2020/12/08 01:38:34;;;;;;;23.55;16.23;;;2.00;99.90;;;;;;5011073;28;20180;-71
2020/12/08 01:41:00;;;;;;;26.35;16.25;;;1.90;99.90;;;;;;5010607;28;20022;-71
2020/12/08 01:43:26;;;;;;;27.10;16.13;;;1.80;99.90;;;;;;5009912;28;20060;-72
2020/12/08 01:45:51;;;;;;;26.20;16.27;;;1.70;99.90;;;;;;5010841;28;20503;-72
2020/12/08 01:48:17;;;;;;;25.05;15.95;;;1.60;99.90;;;;;;5010786;28;20029;-72
2020/12/08 01:50:44;;;;;;;25.67;16.00;;;1.50;99.90;;;;;;5009002;28;20022;-72
2020/12/08 01:53:10;;;;;;;32.97;17.38;;;1.40;99.90;;;;;;5009577;28;20022;-71
2020/12/08 01:55:40;;;;;;;31.17;18.05;;;1.30;99.90;;;;;;5010963;28;20352;-72
2020/12/08 01:58:20;;;;;;;33.55;19.23;;;1.30;99.90;;;;;;5010455;28;20099;-72
2020/12/08 02:00:47;;;;;;;32.33;18.67;;;1.20;99.90;;;;;;5010265;28;20616;-72
2020/12/08 02:03:14;;;;;;;36.25;19.35;;;1.20;99.90;;;;;;5008340;28;20480;-71
2020/12/08 02:05:40;;;;;;;33.95;19.65;;;1.30;99.90;;;;;;5010117;28;20053;-71
2020/12/08 02:08:06;;;;;;;42.20;20.23;;;1.20;99.90;;;;;;5010320;28;20085;-70
2020/12/08 02:10:31;;;;;;;37.40;20.13;;;1.20;99.90;;;;;;5010104;28;20030;-71
2020/12/08 02:12:57;;;;;;;37.38;19.67;;;1.30;99.90;;;;;;5009619;28;20038;-69
2020/12/08 02:15:23;;;;;;;32.78;18.63;;;1.30;99.90;;;;;;5010262;28;20018;-72
2020/12/08 02:17:49;;;;;;;37.88;20.42;;;1.30;99.90;;;;;;5012556;28;20054;-71
2020/12/08 02:20:14;;;;;;;41.47;19.60;;;1.30;99.90;;;;;;5013833;28;20018;-71
2020/12/08 02:22:42;;;;;;;36.97;19.63;;;1.40;99.90;;;;;;5013439;28;20480;-69
2020/12/08 02:25:09;;;;;;;34.15;18.77;;;1.40;99.90;;;;;;5013738;28;20101;-72
2020/12/08 02:27:35;;;;;;;39.45;19.90;;;1.30;99.90;;;;;;5014104;28;20136;-72
2020/12/08 02:30:02;;;;;;;33.95;19.02;;;1.40;99.90;;;;;;5014015;28;20440;-71
2020/12/08 02:32:28;;;;;;;35.92;19.33;;;1.40;99.90;;;;;;5014560;28;20049;-71
2020/12/08 02:34:54;;;;;;;34.70;19.08;;;1.40;99.90;;;;;;5014068;28;20041;-71
2020/12/08 02:37:19;;;;;;;34.78;19.42;;;1.40;99.90;;;;;;5014397;28;20161;-70
2020/12/08 02:39:45;;;;;;;35.20;18.00;;;1.40;99.90;;;;;;5014522;28;20076;-71
2020/12/08 02:42:11;;;;;;;33.85;18.23;;;1.40;99.90;;;;;;5014162;28;20108;-71
2020/12/08 02:44:36;;;;;;;35.90;17.88;;;1.40;99.90;;;;;;5012595;28;20056;-70
2020/12/08 02:47:02;;;;;;;34.35;18.52;;;1.40;99.90;;;;;;5013166;28;20105;-71
2020/12/08 02:49:27;;;;;;;33.38;18.45;;;1.40;99.90;;;;;;5013202;28;20029;-71
2020/12/08 02:51:57;;;;;;;37.80;20.40;;;1.40;99.90;;;;;;5013071;28;20033;-71
2020/12/08 02:54:23;;;;;;;33.78;18.23;;;1.30;99.90;;;;;;5012259;28;20030;-72
2020/12/08 02:56:48;;;;;;;32.78;17.63;;;1.30;99.90;;;;;;5012934;28;20072;-69
2020/12/08 02:59:14;;;;;;;36.25;19.25;;;1.30;99.90;;;;;;5012943;28;20113;-72
2020/12/08 03:01:39;;;;;;;35.17;18.33;;;1.20;99.90;;;;;;5012768;28;20026;-72
2020/12/08 03:04:05;;;;;;;35.90;18.52;;;1.20;99.90;;;;;;5012192;28;20022;-72
2020/12/08 03:06:31;;;;;;;34.00;18.05;;;1.20;99.90;;;;;;5012689;28;20018;-72
2020/12/08 03:08:57;;;;;;;35.97;18.75;;;1.10;99.90;;;;;;5012617;28;20116;-71
2020/12/08 03:11:32;;;;;;;39.20;20.10;;;1.00;99.90;;;;;;5013982;28;20030;-71
2020/12/08 03:13:58;;;;;;;37.92;19.15;;;1.00;99.90;;;;;;5022698;28;20025;-71
2020/12/08 03:16:23;;;;;;;37.80;19.33;;;1.10;99.90;;;;;;5023306;28;20037;-71
2020/12/08 03:18:49;;;;;;;40.35;19.00;;;1.00;99.90;;;;;;5018385;28;20870;-70
2020/12/08 03:21:15;;;;;;;41.03;20.52;;;1.10;99.90;;;;;;5012281;28;20034;-69
2020/12/08 03:23:41;;;;;;;38.25;20.05;;;1.00;99.90;;;;;;5011863;28;20017;-71
2020/12/08 03:26:06;;;;;;;43.08;21.85;;;1.00;99.90;;;;;;5012574;28;20028;-71
2020/12/08 03:28:32;;;;;;;48.20;21.88;;;1.10;99.90;;;;;;5012516;28;20453;-70
2020/12/08 03:30:58;;;;;;;44.95;20.35;;;1.10;99.90;;;;;;5012377;28;20034;-71
2020/12/08 03:33:23;;;;;;;45.20;21.42;;;1.10;99.90;;;;;;5011746;28;20064;-71
2020/12/08 03:35:49;;;;;;;46.78;21.67;;;1.10;99.90;;;;;;5012286;28;20115;-71
2020/12/08 03:38:15;;;;;;;50.10;21.08;;;1.10;99.90;;;;;;5012465;28;20053;-71
2020/12/08 03:40:43;;;;;;;46.83;21.48;;;1.00;99.90;;;;;;5011168;28;20053;-71
2020/12/08 03:43:08;;;;;;;42.08;21.35;;;1.10;99.90;;;;;;5012034;28;20028;-72
2020/12/08 03:45:34;;;;;;;48.72;22.05;;;1.10;99.90;;;;;;5012750;28;20018;-71
2020/12/08 03:48:00;;;;;;;46.45;21.48;;;1.10;99.90;;;;;;5012537;28;20026;-72
2020/12/08 03:50:25;;;;;;;47.53;21.55;;;1.00;99.90;;;;;;5012578;28;20054;-71
2020/12/08 03:52:51;;;;;;;53.90;21.30;;;1.10;99.90;;;;;;5011037;28;20061;-69
2020/12/08 03:55:17;;;;;;;49.35;21.30;;;1.10;99.90;;;;;;5012324;28;20025;-71
2020/12/08 03:57:42;;;;;;;48.53;21.15;;;1.10;99.90;;;;;;5012397;28;20080;-71
2020/12/08 04:00:09;;;;;;;48.47;21.83;;;1.10;99.90;;;;;;5011193;28;20025;-72
2020/12/08 04:02:35;;;;;;;53.88;23.23;;;1.10;99.90;;;;;;5012881;28;20025;-71
2020/12/08 04:05:02;;;;;;;53.83;22.77;;;1.10;99.90;;;;;;5012652;28;20018;-73
2020/12/08 04:07:27;;;;;;;50.55;22.50;;;1.10;99.90;;;;;;5012571;28;20471;-72
2020/12/08 04:09:53;;;;;;;53.50;23.05;;;1.10;99.90;;;;;;5012788;28;20026;-70
2020/12/08 04:12:19;;;;;;;50.78;22.60;;;1.20;99.90;;;;;;5012682;28;20062;-73
2020/12/08 04:14:45;;;;;;;48.22;21.77;;;1.20;99.90;;;;;;5012134;28;20037;-71
2020/12/08 04:17:10;;;;;;;52.70;22.13;;;1.20;99.90;;;;;;5011986;28;20127;-71
2020/12/08 04:19:36;;;;;;;51.88;22.73;;;1.20;99.90;;;;;;5010712;28;20468;-72
2020/12/08 04:22:02;;;;;;;54.22;23.75;;;1.20;99.90;;;;;;5011989;28;20036;-71
2020/12/08 04:24:27;;;;;;;52.35;23.67;;;1.30;99.90;;;;;;5011361;28;20022;-72
2020/12/08 04:26:53;;;;;;;47.55;22.15;;;1.30;99.90;;;;;;5012468;28;20476;-71
2020/12/08 04:29:19;;;;;;;53.03;22.38;;;1.30;99.90;;;;;;5011966;28;20088;-73
2020/12/08 04:31:44;;;;;;;51.05;23.25;;;1.20;99.90;;;;;;5010995;28;20042;-71
2020/12/08 04:34:10;;;;;;;47.75;21.63;;;1.20;99.90;;;;;;5026357;28;20105;-73
2020/12/08 04:36:36;;;;;;;46.10;21.35;;;1.30;99.90;;;;;;5011672;28;20098;-72
2020/12/08 04:39:02;;;;;;;46.78;21.77;;;1.30;99.90;;;;;;5011529;28;20028;-73
2020/12/08 04:41:28;;;;;;;50.10;22.98;;;1.50;99.90;;;;;;5011082;28;20079;-71
2020/12/08 04:43:54;;;;;;;50.50;23.10;;;1.30;99.90;;;;;;5010814;28;20017;-72
2020/12/08 04:46:21;;;;;;;54.78;25.88;;;1.40;99.90;;;;;;5011665;28;20053;-72
2020/12/08 04:48:48;;;;;;;56.20;23.65;;;1.40;99.90;;;;;;5011777;28;20068;-71
2020/12/08 04:51:14;;;;;;;58.03;24.23;;;1.40;99.90;;;;;;5011326;28;20181;-70
2020/12/08 04:53:40;;;;;;;57.40;25.17;;;1.30;99.90;;;;;;5011246;28;20033;-71
2020/12/08 04:56:06;;;;;;;64.63;27.20;;;1.40;99.90;;;;;;5011915;28;20041;-70
2020/12/08 04:58:31;;;;;;;58.70;26.13;;;1.30;99.90;;;;;;5011784;28;20365;-70
2020/12/08 05:00:57;;;;;;;67.05;27.08;;;1.30;99.90;;;;;;5011302;28;20026;-73
2020/12/08 05:03:24;;;;;;;69.93;28.63;;;1.40;99.90;;;;;;5011125;28;20029;-70
2020/12/08 05:05:50;;;;;;;72.60;28.08;;;1.40;99.90;;;;;;5009861;28;20026;-73
2020/12/08 05:08:16;;;;;;;72.35;29.13;;;1.30;99.90;;;;;;5011406;28;20040;-71
2020/12/08 05:10:43;;;;;;;70.72;30.05;;;1.40;99.90;;;;;;5011825;28;20046;-72
2020/12/08 05:13:25;;;;;;;64.22;27.27;;;1.40;99.90;;;;;;5010866;28;20034;-71
2020/12/08 05:15:57;;;;;;;;;;;1.40;99.90;;;;;;5011984;28;20460;-72
2020/12/08 05:18:23;;;;;;;66.05;26.90;;;1.40;99.90;;;;;;5011270;28;19909;-72
2020/12/08 05:20:49;;;;;;;71.10;29.08;;;1.40;99.90;;;;;;5010893;28;20444;-71
2020/12/08 05:23:15;;;;;;;66.70;27.30;;;1.40;99.90;;;;;;5010767;28;20034;-71
2020/12/08 05:25:40;;;;;;;63.13;26.48;;;1.40;99.90;;;;;;5010906;28;20374;-71
2020/12/08 05:28:17;;;;;;;65.38;28.45;;;1.40;99.90;;;;;;5009204;28;20044;-70
2020/12/08 05:30:44;;;;;;;74.60;29.60;;;1.40;99.90;;;;;;4988026;28;20073;-73
2020/12/08 05:33:16;;;;;;;70.65;27.20;;;1.40;99.90;;;;;;4988527;28;20081;-73
2020/12/08 05:35:45;;;;;;;68.85;27.67;;;1.40;99.90;;;;;;5002432;28;20063;-73
2020/12/08 05:38:14;;;;;;;72.13;27.33;;;1.40;99.90;;;;;;5010597;28;20432;-71
2020/12/08 05:40:43;;;;;;;70.97;27.90;;;1.30;99.90;;;;;;5010926;28;20026;-72
2020/12/08 05:43:10;;;;;;;77.57;29.30;;;1.30;99.90;;;;;;5010669;28;20026;-70
2020/12/08 05:45:37;;;;;;;69.97;28.27;;;1.50;99.90;;;;;;5011521;28;20033;-73
2020/12/08 05:48:02;;;;;;;73.50;29.58;;;1.40;99.90;;;;;;4998659;28;20133;-71
2020/12/08 05:50:28;;;;;;;74.60;28.55;;;1.40;99.90;;;;;;4992031;28;20085;-72
2020/12/08 05:52:56;;;;;;;60.65;27.20;;;1.30;99.90;;;;;;4994878;28;20065;-72
2020/12/08 05:55:23;;;;;;;59.45;26.13;;;1.30;99.90;;;;;;4995485;28;20029;-70
2020/12/08 05:57:50;;;;;;;54.33;25.40;;;1.30;99.90;;;;;;5015161;28;20452;-70
2020/12/08 06:00:30;;;;;;;52.45;25.00;;;1.30;99.90;;;;;;5016533;28;20022;-72
2020/12/08 06:03:08;;;;;;;50.97;26.30;;;1.20;99.90;;;;;;4987183;28;20026;-71
2020/12/08 06:05:34;;;;;;;49.67;25.50;;;1.20;99.90;;;;;;4978055;28;20545;-73
2020/12/08 06:08:11;;;;;;;48.22;24.17;;;1.00;99.90;;;;;;4979626;28;20094;-72
2020/12/08 06:10:47;;;;;;;43.88;23.40;;;1.00;99.90;;;;;;4980137;28;20030;-70
2020/12/08 06:13:29;;;;;;;43.22;22.15;;;0.90;99.90;;;;;;4980147;28;20050;-74
2020/12/08 06:15:56;;;;;;;38.95;21.83;;;0.90;99.90;;;;;;4979943;28;20247;-74
2020/12/08 06:18:30;;;;;;;48.55;22.92;;;0.80;99.90;;;;;;4976093;28;20023;-73
2020/12/08 06:20:56;;;;;;;46.05;21.75;;;0.90;99.90;;;;;;4977268;28;20049;-69
2020/12/08 06:23:22;;;;;;;40.80;21.92;;;0.90;99.90;;;;;;4997484;28;20027;-70
2020/12/08 06:25:56;;;;;;;37.03;20.08;;;0.80;99.90;;;;;;5012521;28;20074;-69
2020/12/08 06:28:22;;;;;;;36.05;21.42;;;0.80;99.90;;;;;;4994777;28;20058;-69
2020/12/08 06:30:48;;;;;;;35.00;20.25;;;0.80;99.90;;;;;;4997719;28;20432;-70
2020/12/08 06:33:14;;;;;;;33.17;19.45;;;0.70;99.90;;;;;;4995506;28;20022;-71
2020/12/08 06:35:39;;;;;;;40.17;19.75;;;0.70;99.90;;;;;;5011924;28;20362;-70
2020/12/08 06:38:05;;;;;;;34.58;18.83;;;0.60;99.90;;;;;;4996440;28;20117;-71
2020/12/08 06:40:31;;;;;;;30.05;17.92;;;0.60;99.90;;;;;;4995185;28;20535;-71
2020/12/08 06:42:56;;;;;;;34.88;19.60;;;0.50;99.90;;;;;;4995922;28;20396;-69
2020/12/08 06:45:23;;;;;;;38.20;20.60;;;0.40;99.90;;;;;;4996153;28;20035;-70
2020/12/08 06:47:50;;;;;;;37.47;19.48;;;0.30;99.90;;;;;;4996095;28;20019;-69
2020/12/08 06:50:28;;;;;;;33.63;19.00;;;0.30;99.90;;;;;;4995963;28;20098;-71
2020/12/08 06:52:59;;;;;;;35.60;19.40;;;0.20;99.90;;;;;;4994969;28;20089;-70
2020/12/08 06:55:26;;;;;;;43.75;21.23;;;0.10;99.90;;;;;;4995906;28;20058;-71
2020/12/08 06:57:53;;;;;;;46.95;21.02;;;0.10;99.90;;;;;;5016501;28;20480;-70
2020/12/08 07:00:19;;;;;;;43.08;20.67;;;0.10;99.90;;;;;;5016607;28;20026;-70
2020/12/08 07:02:50;;;;;;;47.30;21.50;;;0.10;99.90;;;;;;5014610;28;20088;-70
2020/12/08 07:05:22;;;;;;;50.28;23.85;;;0.10;99.90;;;;;;5015930;28;20033;-68
2020/12/08 07:07:48;;;;;;;53.22;24.85;;;0.10;99.90;;;;;;5015466;28;20384;-69
2020/12/08 07:10:15;;;;;;;51.72;23.48;;;0.00;99.90;;;;;;5015521;28;20096;-69
2020/12/08 07:12:46;;;;;;;49.50;23.13;;;0.00;99.90;;;;;;5014944;28;20040;-69
2020/12/08 07:15:14;;;;;;;57.60;24.83;;;0.00;99.90;;;;;;5005064;28;20041;-68
2020/12/08 07:17:40;;;;;;;57.95;27.65;;;-0.10;99.90;;;;;;4999204;28;20030;-70
2020/12/08 07:20:06;;;;;;;58.17;26.00;;;0.10;99.90;;;;;;4997709;28;20042;-69
2020/12/08 07:22:42;;;;;;;57.40;26.83;;;-0.10;99.90;;;;;;4998126;28;20026;-68
2020/12/08 07:25:09;;;;;;;60.30;28.02;;;0.00;99.90;;;;;;4981588;28;20018;-71
2020/12/08 07:27:36;;;;;;;63.65;26.60;;;0.10;99.90;;;;;;4978397;28;20073;-70
2020/12/08 07:30:03;;;;;;;55.38;25.80;;;0.10;99.90;;;;;;4978076;28;20511;-68
2020/12/08 07:32:29;;;;;;;61.50;26.88;;;0.10;99.90;;;;;;4979287;28;20186;-69
2020/12/08 07:34:55;;;;;;;65.35;29.20;;;0.10;99.90;;;;;;5012906;28;20151;-69
2020/12/08 07:37:21;;;;;;;62.45;27.77;;;0.10;99.90;;;;;;5012836;28;20026;-69
2020/12/08 07:39:46;;;;;;;68.25;29.15;;;0.30;99.90;;;;;;5013213;28;20038;-70
2020/12/08 07:42:12;;;;;;;69.70;28.05;;;0.40;99.90;;;;;;5013349;28;20021;-70
2020/12/08 07:44:38;;;;;;;70.85;31.02;;;0.40;99.90;;;;;;5012166;28;20033;-69
2020/12/08 07:47:11;;;;;;;78.20;31.52;;;0.40;99.90;;;;;;5012763;28;20066;-70
2020/12/08 07:49:40;;;;;;;70.57;29.60;;;0.50;99.90;;;;;;5012485;28;20041;-67
2020/12/08 07:52:05;;;;;;;71.32;30.55;;;0.50;99.90;;;;;;5010875;28;20037;-69
2020/12/08 07:54:31;;;;;;;61.55;28.38;;;0.50;99.90;;;;;;5011506;28;20025;-68
2020/12/08 07:56:57;;;;;;;65.68;28.45;;;0.50;99.90;;;;;;5012471;28;20396;-69
2020/12/08 07:59:22;;;;;;;68.05;28.90;;;0.40;99.90;;;;;;5012393;28;20022;-71
2020/12/08 08:01:48;;;;;;;69.03;27.92;;;0.50;99.90;;;;;;5012268;28;20029;-69
2020/12/08 08:04:14;;;;;;;78.60;36.60;;;0.50;99.90;;;;;;5011479;28;20022;-69
2020/12/08 08:06:40;;;;;;;75.43;36.70;;;0.70;99.90;;;;;;5012055;28;20030;-69
2020/12/08 08:09:07;;;;;;;88.10;36.60;;;0.70;99.90;;;;;;5013450;28;20026;-69
2020/12/08 08:11:33;;;;;;;76.13;32.50;;;0.90;99.90;;;;;;5012800;28;20025;-69
2020/12/08 08:14:00;;;;;;;72.43;32.60;;;1.00;99.90;;;;;;5011496;28;20553;-68
2020/12/08 08:16:25;;;;;;;74.72;32.53;;;1.10;99.90;;;;;;5010782;28;20125;-69
2020/12/08 08:18:51;;;;;;;73.72;32.65;;;1.10;99.90;;;;;;5011988;28;20057;-69
2020/12/08 08:21:19;;;;;;;72.00;32.95;;;1.40;99.90;;;;;;5010728;28;20038;-71
2020/12/08 08:23:45;;;;;;;67.32;33.42;;;1.80;99.90;;;;;;5012616;28;20022;-71
2020/12/08 08:26:11;;;;;;;69.95;39.20;;;1.90;99.90;;;;;;5013789;28;20033;-71
2020/12/08 08:28:37;;;;;;;60.95;36.20;;;2.50;99.90;;;;;;5011712;28;20018;-70
2020/12/08 08:31:03;;;;;;;51.70;26.25;;;3.10;99.90;;;;;;5011576;28;20042;-69
2020/12/08 08:33:29;;;;;;;42.70;24.98;;;4.00;99.90;;;;;;5011212;28;20046;-70
2020/12/08 08:35:55;;;;;;;35.42;21.90;;;4.60;99.90;;;;;;5010562;28;20174;-69
2020/12/08 08:38:21;;;;;;;38.33;23.10;;;4.80;99.90;;;;;;5011444;28;20345;-70
2020/12/08 08:40:47;;;;;;;35.22;22.17;;;5.30;99.90;;;;;;5011076;28;20018;-70
2020/12/08 08:43:13;;;;;;;32.40;21.95;;;5.60;99.90;;;;;;5010667;28;20107;-70
2020/12/08 08:45:39;;;;;;;31.60;20.73;;;5.90;99.90;;;;;;5011571;28;20077;-69
2020/12/08 08:48:05;;;;;;;31.88;21.95;;;6.00;99.90;;;;;;5011138;28;20026;-68
2020/12/08 08:50:31;;;;;;;30.23;20.02;;;6.40;99.90;;;;;;5011171;28;20068;-69
2020/12/08 08:52:57;;;;;;;25.23;17.75;;;6.50;99.90;;;;;;5010086;28;20029;-69
2020/12/08 08:55:23;;;;;;;27.70;18.20;;;6.90;99.90;;;;;;5010790;28;20030;-71
2020/12/08 08:57:48;;;;;;;23.17;16.98;;;7.00;99.90;;;;;;5011163;28;20068;-69
2020/12/08 09:00:14;;;;;;;30.67;17.95;;;7.20;99.90;;;;;;5011429;28;20581;-70
2020/12/08 09:02:39;;;;;;;26.40;17.02;;;7.40;99.90;;;;;;5011678;28;20030;-69
2020/12/08 09:05:06;;;;;;;24.27;17.13;;;7.70;99.90;;;;;;5012680;28;20060;-68
2020/12/08 09:07:32;;;;;;;23.63;16.48;;;7.40;99.90;;;;;;5009718;28;20030;-69
2020/12/08 09:09:58;;;;;;;23.33;16.17;;;7.30;99.90;;;;;;5011139;28;20029;-70
2020/12/08 09:12:24;;;;;;;24.17;17.58;;;7.40;99.90;;;;;;5011078;28;20037;-69
2020/12/08 09:14:54;;;;;;;24.50;16.75;;;7.60;99.90;;;;;;5010224;28;20033;-70
2020/12/08 09:17:19;;;;;;;22.30;16.83;;;7.80;99.90;;;;;;5011107;28;20018;-69
2020/12/08 09:19:45;;;;;;;24.00;17.25;;;8.20;99.90;;;;;;4996463;28;20028;-71
2020/12/08 09:22:11;;;;;;;23.65;16.08;;;9.30;99.90;;;;;;4996725;28;20030;-68
2020/12/08 09:24:37;;;;;;;21.55;16.20;;;10.00;99.90;;;;;;4990663;28;20015;-68
2020/12/08 09:27:04;;;;;;;24.38;17.83;;;10.40;99.90;;;;;;4993903;28;20026;-70
2020/12/08 09:29:30;;;;;;;23.35;18.73;;;11.00;99.90;;;;;;4995829;28;20045;-68
2020/12/08 09:31:56;;;;;;;21.27;18.00;;;12.40;99.90;;;;;;4996380;28;20058;-68
2020/12/08 09:34:23;;;;;;;21.52;18.40;;;13.70;96.90;;;;;;5010821;28;20022;-70
2020/12/08 09:36:53;;;;;;;22.65;18.17;;;14.80;93.60;;;;;;5014966;28;20443;-70
2020/12/08 09:39:19;;;;;;;26.13;20.85;;;15.40;91.40;;;;;;5016689;28;20037;-70
2020/12/08 09:41:45;;;;;;;24.80;20.08;;;15.40;85.50;;;;;;5016445;28;20480;-70
2020/12/08 09:44:11;;;;;;;21.77;18.20;;;15.20;88.40;;;;;;5013177;28;20046;-70
2020/12/08 09:46:38;;;;;;;23.00;18.30;;;15.00;84.00;;;;;;5014775;28;20057;-69
2020/12/08 09:49:04;;;;;;;24.33;20.38;;;15.80;81.10;;;;;;5016744;28;20036;-71
2020/12/08 09:51:30;;;;;;;23.85;20.08;;;16.20;79.40;;;;;;4994535;28;20030;-69
2020/12/08 09:53:55;;;;;;;24.15;20.73;;;17.40;77.00;;;;;;5004482;28;20052;-69
2020/12/08 09:56:21;;;;;;;22.85;19.92;;;17.90;75.00;;;;;;5013168;28;20112;-68
2020/12/08 09:58:47;;;;;;;23.90;20.05;;;18.20;70.00;;;;;;5014219;28;20361;-68
2020/12/08 10:01:12;;;;;;;23.15;19.45;;;17.80;68.80;;;;;;5014071;28;20022;-69
2020/12/08 10:03:38;;;;;;;24.40;19.20;;;15.10;78.50;;;;;;5011031;28;20369;-70
2020/12/08 10:06:04;;;;;;;23.63;19.75;;;16.00;77.00;;;;;;5013640;28;20144;-70
2020/12/08 10:08:30;;;;;;;21.33;18.98;;;16.90;74.50;;;;;;4990856;28;20059;-70
2020/12/08 10:10:56;;;;;;;27.38;20.35;;;17.60;71.20;;;;;;4982138;28;20026;-69
2020/12/08 10:13:22;;;;;;;21.10;18.90;;;18.10;68.80;;;;;;4987473;28;20105;-69
2020/12/08 10:15:47;;;;;;;20.58;18.38;;;19.60;63.00;;;;;;4983801;28;20477;-69
2020/12/08 10:18:13;;;;;;;20.27;18.17;;;20.20;60.60;;;;;;4984152;28;20026;-69
2020/12/08 10:20:39;;;;;;;20.63;18.52;;;20.50;57.50;;;;;;4982833;28;20019;-71
2020/12/08 10:23:06;;;;;;;21.23;19.02;;;20.20;57.20;;;;;;4981075;28;20202;-69
2020/12/08 10:25:33;;;;;;;21.40;19.20;;;20.40;58.40;;;;;;4984205;28;20011;-68
2020/12/08 10:27:59;;;;;;;20.08;17.92;;;19.60;57.50;;;;;;5012815;28;20025;-68
2020/12/08 10:30:25;;;;;;;21.15;18.77;;;19.60;58.80;;;;;;4982996;28;20030;-68
2020/12/08 10:32:51;;;;;;;21.65;19.38;;;20.40;57.80;;;;;;4986131;28;20022;-71
2020/12/08 10:35:16;;;;;;;20.77;18.70;;;21.30;55.70;;;;;;4983686;28;20054;-71
2020/12/08 10:37:42;;;;;;;21.85;19.60;;;21.40;53.20;;;;;;4987095;28;20373;-72
2020/12/08 10:40:08;;;;;;;19.92;17.60;;;21.20;53.20;;;;;;4993761;28;20038;-71
2020/12/08 10:42:33;;;;;;;19.90;17.83;;;20.60;55.00;;;;;;4993471;28;20038;-69
2020/12/08 10:44:59;;;;;;;20.77;18.67;;;21.10;54.60;;;;;;4975576;28;20022;-69
2020/12/08 10:47:25;;;;;;;20.63;18.52;;;21.00;55.70;;;;;;4974255;28;20481;-70
2020/12/08 10:49:54;;;;;;;21.10;18.92;;;21.00;52.70;;;;;;4973565;28;20025;-69
2020/12/08 10:52:20;;;;;;;22.10;19.30;;;20.80;52.50;;;;;;4973913;28;20023;-71
2020/12/08 10:54:46;;;;;;;21.52;19.23;;;19.00;56.30;;;;;;4973035;28;20089;-71
2020/12/08 10:57:11;;;;;;;21.85;18.10;;;17.90;57.70;;;;;;4974715;28;20023;-70
2020/12/08 10:59:37;;;;;;;21.35;19.15;;;17.50;59.10;;;;;;4974074;28;20104;-69
2020/12/08 11:02:03;;;;;;;21.95;18.75;;;18.00;59.60;;;;;;4974406;28;20066;-70
2020/12/08 11:04:29;;;;;;;20.58;18.48;;;18.70;58.70;;;;;;5008642;28;20049;-72
2020/12/08 11:06:56;;;;;;;20.77;18.58;;;18.90;57.50;;;;;;5011726;28;20080;-68
2020/12/08 11:09:22;;;;;;;20.50;18.40;;;18.80;57.40;;;;;;5012842;28;20025;-70
2020/12/08 11:11:47;;;;;;;20.92;18.60;;;17.90;58.10;;;;;;5011661;28;20102;-69
2020/12/08 11:14:13;;;;;;;21.27;18.95;;;16.00;61.00;;;;;;5010936;28;20037;-69
2020/12/08 11:16:39;;;;;;;23.85;19.88;;;15.00;64.30;;;;;;5013425;28;20034;-69
2020/12/08 11:19:04;;;;;;;25.10;19.30;;;13.80;68.60;;;;;;5013105;28;20080;-70
2020/12/08 11:21:33;;;;;;;23.77;19.98;;;12.60;73.00;;;;;;5013060;28;20053;-69
2020/12/08 11:23:59;;;;;;;25.33;20.20;;;12.20;75.40;;;;;;5010789;28;20030;-70
2020/12/08 11:26:28;;;;;;;24.63;20.27;;;12.30;76.60;;;;;;5012960;28;20028;-69
2020/12/08 11:28:54;;;;;;;29.88;21.17;;;12.60;76.80;;;;;;5012857;28;20026;-69
2020/12/08 11:31:20;;;;;;;25.70;20.65;;;13.30;73.20;;;;;;5012680;28;20088;-69
2020/12/08 11:33:46;;;;;;;24.90;19.75;;;13.70;73.30;;;;;;5011715;28;20420;-69
2020/12/08 11:36:13;;;;;;;25.55;20.05;;;13.40;72.70;;;;;;4993166;28;20031;-69
2020/12/08 11:38:39;;;;;;;24.92;20.00;;;13.50;72.40;;;;;;4972921;28;20026;-70
2020/12/08 11:41:05;;;;;;;28.10;20.65;;;13.80;71.80;;;;;;4973774;28;20126;-69
2020/12/08 11:43:32;;;;;;;25.42;19.95;;;14.00;71.40;;;;;;4973001;28;20390;-70
2020/12/08 11:45:58;;;;;;;26.60;19.98;;;14.30;70.10;;;;;;4973865;28;20077;-70
2020/12/08 11:48:25;;;;;;;29.30;20.60;;;14.60;70.50;;;;;;4974720;28;20027;-69
2020/12/08 11:50:51;;;;;;;25.15;20.15;;;14.40;70.50;;;;;;4974372;28;20450;-70
2020/12/08 11:53:17;;;;;;;25.95;19.60;;;14.40;70.00;;;;;;4975990;28;20038;-68
2020/12/08 11:55:42;;;;;;;27.40;21.00;;;14.80;69.60;;;;;;4975003;28;20035;-70
2020/12/08 11:58:08;;;;;;;25.73;20.50;;;15.20;69.20;;;;;;4974199;28;20042;-71
2020/12/08 12:00:35;;;;;;;26.65;21.67;;;15.60;68.00;;;;;;4973825;28;20047;-70
2020/12/08 12:03:00;;;;;;;27.52;22.13;;;15.20;68.40;;;;;;4983974;28;20033;-69
2020/12/08 12:05:26;;;;;;;24.70;20.35;;;14.60;69.20;;;;;;5012051;28;20045;-70
2020/12/08 12:07:52;;;;;;;24.80;20.10;;;14.50;70.20;;;;;;5012398;28;20052;-68
2020/12/08 12:10:17;;;;;;;28.90;21.75;;;13.80;71.80;;;;;;5012354;28;20072;-70
2020/12/08 12:12:43;;;;;;;30.38;22.73;;;13.50;73.00;;;;;;5011139;28;20030;-70
2020/12/08 12:15:09;;;;;;;28.02;20.48;;;13.70;73.90;;;;;;5011485;28;20680;-69
2020/12/08 12:17:34;;;;;;;27.95;21.35;;;13.70;73.90;;;;;;5011686;28;20030;-70
2020/12/08 12:20:00;;;;;;;30.80;21.63;;;13.10;75.70;;;;;;5011661;28;20152;-70
2020/12/08 12:22:26;;;;;;;32.47;21.10;;;13.00;76.10;;;;;;5011383;28;20108;-70
2020/12/08 12:24:55;;;;;;;31.50;19.45;;;12.70;77.80;;;;;;5010949;28;20018;-69
2020/12/08 12:27:21;;;;;;;30.15;21.08;;;12.00;78.60;;;;;;5011529;28;20095;-69
2020/12/08 12:29:47;;;;;;;29.35;20.27;;;11.90;80.20;;;;;;5011312;28;20030;-69
2020/12/08 12:32:14;;;;;;;32.75;21.58;;;12.00;80.20;;;;;;5011487;28;20588;-70